createdAt,value
2018-09-25T00:39:00.091Z,5.20
2018-09-25T00:41:33.437Z,5.20
2018-09-25T00:44:06.729Z,5.20
2018-09-25T00:46:40.084Z,5.10
2018-09-25T00:49:13.462Z,5.10
2018-09-25T00:51:46.861Z,5.00
2018-09-25T00:54:19.915Z,5.10
2018-09-25T00:56:53.135Z,5.10
2018-09-25T00:59:26.176Z,5.20
2018-09-25T01:01:59.403Z,5.10
2018-09-25T01:04:32.454Z,5.10
2018-09-25T01:07:05.697Z,5.00
2018-09-25T01:09:38.790Z,4.90
2018-09-25T01:12:12.107Z,4.90
2018-09-25T01:14:45.398Z,4.90
2018-09-25T01:17:18.570Z,4.80
2018-09-25T01:19:51.882Z,4.70
2018-09-25T01:22:25.121Z,4.80
2018-09-25T01:24:58.288Z,4.80
2018-09-25T01:27:31.347Z,4.80
2018-09-25T01:30:04.542Z,4.80
2018-09-25T01:32:37.623Z,4.70
2018-09-25T01:35:10.814Z,4.70
2018-09-25T01:37:43.941Z,4.60
2018-09-25T01:40:17.123Z,4.60
2018-09-25T01:42:50.212Z,4.60
2018-09-25T01:45:23.281Z,4.60
2018-09-25T01:47:56.426Z,4.60
2018-09-25T01:50:29.607Z,4.50
2018-09-25T01:53:02.753Z,4.50
2018-09-25T01:55:35.895Z,4.50
2018-09-25T01:58:09.153Z,4.60
2018-09-25T02:00:42.245Z,4.60
2018-09-25T02:03:15.761Z,4.50
2018-09-25T02:05:49.021Z,4.50
2018-09-25T02:08:22.405Z,4.50
2018-09-25T02:10:55.678Z,4.40
2018-09-25T02:13:28.695Z,4.40
2018-09-25T02:16:01.808Z,4.40
2018-09-25T02:18:34.902Z,4.40
2018-09-25T02:21:07.978Z,4.50
2018-09-25T02:23:41.192Z,4.50
2018-09-25T02:26:14.315Z,4.50
2018-09-25T02:28:47.581Z,4.50
2018-09-25T02:31:20.747Z,4.50
2018-09-25T02:33:53.890Z,4.50
2018-09-25T02:36:27.014Z,4.50
2018-09-25T02:39:00.446Z,4.50
2018-09-25T02:41:33.592Z,4.50
2018-09-25T02:44:06.711Z,4.50
2018-09-25T02:46:39.761Z,4.50
2018-09-25T02:49:12.990Z,4.50
2018-09-25T02:51:46.168Z,4.50
2018-09-25T02:54:19.253Z,4.50
2018-09-25T02:56:52.495Z,4.50
2018-09-25T02:59:25.656Z,4.50
2018-09-25T03:01:58.712Z,4.60
2018-09-25T03:04:31.827Z,4.60
2018-09-25T03:07:05.227Z,4.60
2018-09-25T03:09:38.540Z,4.50
2018-09-25T03:12:12.032Z,4.60
2018-09-25T03:14:45.310Z,4.70
2018-09-25T03:17:18.364Z,4.70
2018-09-25T03:19:51.521Z,4.50
2018-09-25T03:22:24.667Z,4.50
2018-09-25T03:24:58.213Z,4.40
2018-09-25T03:27:31.382Z,4.40
2018-09-25T03:30:04.555Z,4.30
2018-09-25T03:32:37.833Z,4.30
2018-09-25T03:35:11.069Z,4.30
2018-09-25T03:37:44.229Z,4.40
2018-09-25T03:40:17.423Z,4.40
2018-09-25T03:42:50.605Z,4.40
2018-09-25T03:45:23.832Z,4.50
2018-09-25T03:47:57.016Z,4.50
2018-09-25T03:50:30.291Z,4.50
2018-09-25T03:53:03.395Z,4.60
2018-09-25T03:55:36.696Z,4.60
2018-09-25T03:58:09.921Z,4.60
2018-09-25T04:00:43.418Z,4.60
2018-09-25T04:03:16.837Z,4.70
2018-09-25T04:05:49.962Z,4.70
2018-09-25T04:08:23.563Z,4.70
2018-09-25T04:10:56.848Z,4.70
2018-09-25T04:13:30.118Z,4.80
2018-09-25T04:16:03.239Z,4.80
2018-09-25T04:18:36.511Z,4.80
2018-09-25T04:21:09.722Z,4.80
2018-09-25T04:23:43.181Z,4.90
2018-09-25T04:26:16.244Z,4.90
2018-09-25T04:28:49.495Z,4.80
2018-09-25T04:31:22.713Z,4.90
2018-09-25T04:33:55.805Z,4.90
2018-09-25T04:36:28.893Z,4.90
2018-09-25T04:39:02.062Z,4.90
2018-09-25T04:41:35.244Z,5.00
2018-09-25T04:44:08.392Z,5.00
2018-09-25T04:46:41.489Z,5.00
2018-09-25T04:49:14.710Z,5.00
2018-09-25T04:51:47.790Z,5.10
2018-09-25T04:54:20.960Z,5.10
2018-09-25T04:56:54.194Z,5.10
2018-09-25T04:59:27.471Z,5.20
2018-09-25T05:02:00.473Z,5.20
2018-09-25T05:04:33.524Z,5.30
2018-09-25T05:07:06.668Z,5.30
2018-09-25T05:09:39.759Z,5.30
2018-09-25T05:12:12.952Z,5.30
2018-09-25T05:14:46.218Z,5.40
2018-09-25T05:17:19.282Z,5.40
2018-09-25T05:19:52.413Z,5.50
2018-09-25T05:22:25.582Z,5.50
2018-09-25T05:24:59.010Z,5.60
2018-09-25T05:27:32.380Z,5.60
2018-09-25T05:30:05.540Z,5.60
2018-09-25T05:32:38.561Z,5.70
2018-09-25T05:35:11.885Z,5.70
2018-09-25T05:37:45.115Z,5.70
2018-09-25T05:40:18.206Z,5.70
2018-09-25T05:42:51.432Z,5.80
2018-09-25T05:45:24.769Z,5.80
2018-09-25T05:47:57.997Z,5.80
2018-09-25T05:50:31.224Z,5.80
2018-09-25T05:53:04.501Z,5.80
2018-09-25T05:55:37.609Z,5.80
2018-09-25T05:58:10.818Z,5.80
2018-09-25T06:00:43.884Z,5.80
2018-09-25T06:03:17.214Z,5.90
2018-09-25T06:05:50.427Z,5.90
2018-09-25T06:08:23.761Z,5.90
2018-09-25T06:10:57.108Z,6.00
2018-09-25T06:13:30.319Z,6.00
2018-09-25T06:16:03.518Z,6.00
2018-09-25T06:18:36.755Z,6.00
2018-09-25T06:21:09.852Z,6.00
2018-09-25T06:23:43.005Z,6.00
2018-09-25T06:26:16.151Z,6.00
2018-09-25T06:28:49.438Z,6.00
2018-09-25T06:31:22.701Z,6.10
2018-09-25T06:33:55.940Z,6.10
2018-09-25T06:36:29.235Z,6.20
2018-09-25T06:39:02.432Z,6.20
2018-09-25T06:41:35.750Z,6.30
2018-09-25T06:44:08.912Z,6.30
2018-09-25T06:46:42.038Z,6.30
2018-09-25T06:49:15.192Z,6.30
2018-09-25T06:51:48.377Z,6.40
2018-09-25T06:54:21.531Z,6.30
2018-09-25T06:56:54.667Z,6.40
2018-09-25T06:59:27.977Z,6.40
2018-09-25T07:02:01.296Z,6.50
2018-09-25T07:04:34.428Z,6.50
2018-09-25T07:07:07.543Z,6.60
2018-09-25T07:09:40.777Z,6.60
2018-09-25T07:12:13.855Z,6.60
2018-09-25T07:14:47.084Z,6.60
2018-09-25T07:17:20.171Z,6.70
2018-09-25T07:19:53.275Z,6.80
2018-09-25T07:22:26.526Z,6.80
2018-09-25T07:24:59.644Z,6.90
2018-09-25T07:27:32.959Z,6.90
2018-09-25T07:30:06.263Z,7.00
2018-09-25T07:32:39.450Z,7.10
2018-09-25T07:35:12.703Z,7.20
2018-09-25T07:37:45.879Z,7.20
2018-09-25T07:42:52.104Z,7.30
2018-09-25T07:45:25.291Z,7.50
2018-09-25T07:47:58.509Z,7.60
2018-09-25T07:50:31.642Z,7.60
2018-09-25T07:53:04.682Z,7.70
2018-09-25T07:55:38.035Z,7.70
2018-09-25T07:58:11.138Z,7.90
2018-09-25T08:00:44.374Z,7.90
2018-09-25T08:03:17.536Z,8.00
2018-09-25T08:05:50.605Z,8.10
2018-09-25T08:08:23.815Z,8.20
2018-09-25T08:10:56.893Z,8.30
2018-09-25T08:13:30.071Z,8.40
2018-09-25T08:18:36.238Z,8.60
2018-09-25T08:21:09.350Z,8.70
2018-09-25T08:23:42.423Z,8.80
2018-09-25T08:26:15.593Z,9.00
2018-09-25T08:28:48.671Z,9.10
2018-09-25T08:31:21.839Z,9.20
2018-09-25T08:33:55.038Z,9.30
2018-09-25T08:36:28.360Z,9.40
2018-09-25T08:39:01.828Z,9.60
2018-09-25T08:41:34.900Z,9.60
2018-09-25T08:44:15.232Z,9.80
2018-09-25T08:46:48.193Z,9.80
2018-09-25T08:49:21.458Z,9.90
2018-09-25T08:51:54.810Z,10.00
2018-09-25T08:54:28.270Z,10.10
2018-09-25T08:57:01.646Z,10.30
2018-09-25T08:59:35.002Z,10.40
2018-09-25T09:02:08.210Z,10.60
2018-09-25T09:04:41.617Z,10.70
2018-09-25T09:09:47.808Z,11.10
2018-09-25T09:12:21.234Z,11.20
2018-09-25T09:14:54.636Z,11.40
2018-09-25T09:17:27.852Z,11.50
2018-09-25T09:20:00.967Z,11.60
2018-09-25T09:22:34.152Z,11.80
2018-09-25T09:25:07.317Z,12.00
2018-09-25T09:27:40.431Z,12.00
2018-09-25T09:30:13.521Z,12.10
2018-09-25T09:32:46.736Z,12.10
2018-09-25T09:35:20.047Z,12.30
2018-09-25T09:37:53.277Z,12.50
2018-09-25T09:40:26.493Z,12.80
2018-09-25T09:42:59.813Z,13.00
2018-09-25T09:45:33.148Z,13.30
2018-09-25T09:48:06.507Z,13.80
2018-09-25T09:50:39.774Z,14.20
2018-09-25T09:53:13.037Z,14.40
2018-09-25T09:55:46.140Z,14.20
2018-09-25T09:58:19.312Z,13.90
2018-09-25T10:00:52.542Z,13.80
2018-09-25T10:03:25.722Z,13.70
2018-09-25T10:05:58.887Z,13.60
2018-09-25T10:08:32.018Z,13.60
2018-09-25T10:11:05.202Z,13.30
2018-09-25T10:13:38.413Z,13.00
2018-09-25T10:16:11.690Z,12.90
2018-09-25T10:18:44.951Z,13.00
2018-09-25T10:21:18.233Z,13.00
2018-09-25T10:23:51.454Z,12.90
2018-09-25T10:26:24.565Z,12.60
2018-09-25T10:28:57.715Z,12.70
2018-09-25T10:31:31.280Z,12.70
2018-09-25T10:34:04.456Z,12.80
2018-09-25T10:36:37.578Z,12.90
2018-09-25T10:39:12.396Z,13.00
2018-09-25T10:41:45.812Z,13.30
2018-09-25T10:44:19.009Z,13.50
2018-09-25T10:46:52.089Z,13.80
2018-09-25T10:49:25.273Z,13.90
2018-09-25T10:51:58.406Z,14.10
2018-09-25T10:54:31.580Z,14.10
2018-09-25T10:57:04.666Z,14.00
2018-09-25T10:59:37.860Z,14.20
2018-09-25T11:02:11.058Z,14.20
2018-09-25T11:04:44.564Z,14.20
2018-09-25T11:07:17.824Z,14.20
2018-09-25T11:09:51.030Z,14.30
2018-09-25T11:12:24.368Z,14.30
2018-09-25T11:14:57.820Z,14.30
2018-09-25T11:17:31.148Z,14.30
2018-09-25T11:20:04.271Z,14.20
2018-09-25T11:22:37.642Z,14.30
2018-09-25T11:25:10.932Z,14.30
2018-09-25T11:27:44.299Z,14.40
2018-09-25T11:30:17.466Z,14.40
2018-09-25T11:32:50.668Z,14.30
2018-09-25T11:35:23.913Z,14.40
2018-09-25T11:37:57.045Z,14.10
2018-09-25T11:40:30.274Z,13.80
2018-09-25T11:43:03.365Z,13.70
2018-09-25T11:45:36.820Z,14.00
2018-09-25T11:48:10.129Z,14.20
2018-09-25T11:50:43.563Z,14.30
2018-09-25T11:53:16.829Z,14.30
2018-09-25T11:55:50.082Z,14.10
2018-09-25T11:58:23.667Z,14.30
2018-09-25T12:00:56.995Z,14.40
2018-09-25T12:03:30.206Z,14.30
2018-09-25T12:06:03.413Z,14.30
2018-09-25T12:08:36.588Z,14.40
2018-09-25T12:11:09.819Z,14.20
2018-09-25T12:13:42.946Z,14.30
2018-09-25T12:16:16.072Z,14.50
2018-09-25T12:18:49.276Z,14.70
2018-09-25T12:21:22.472Z,14.60
2018-09-25T12:23:55.862Z,14.50
2018-09-25T12:26:28.988Z,14.60
2018-09-25T12:29:02.125Z,14.70
2018-09-25T12:31:35.300Z,14.90
2018-09-25T12:34:08.443Z,15.00
2018-09-25T12:36:41.626Z,15.10
2018-09-25T12:39:14.743Z,15.10
2018-09-25T12:41:47.987Z,15.10
2018-09-25T12:44:21.193Z,15.10
2018-09-25T12:46:54.375Z,15.10
2018-09-25T12:49:27.491Z,14.80
2018-09-25T12:52:00.622Z,14.60
2018-09-25T12:54:34.038Z,14.60
2018-09-25T12:57:07.534Z,14.50
2018-09-25T12:59:40.855Z,14.40
2018-09-25T13:02:14.321Z,14.60
2018-09-25T13:04:47.367Z,14.50
2018-09-25T13:07:20.626Z,14.40
2018-09-25T13:09:53.795Z,14.50
2018-09-25T13:12:27.205Z,14.70
2018-09-25T13:15:00.593Z,14.90
2018-09-25T13:17:33.900Z,15.20
2018-09-25T13:20:07.203Z,15.20
2018-09-25T13:22:40.305Z,15.30
2018-09-25T13:25:13.627Z,15.50
2018-09-25T13:27:46.784Z,15.40
2018-09-25T13:30:19.956Z,15.50
2018-09-25T13:32:53.331Z,15.50
2018-09-25T13:35:26.588Z,15.50
2018-09-25T13:37:59.847Z,15.40
2018-09-25T13:40:33.299Z,15.20
2018-09-25T13:43:06.757Z,15.10
2018-09-25T13:45:39.974Z,15.00
2018-09-25T13:48:13.093Z,14.90
2018-09-25T13:50:46.470Z,14.70
2018-09-25T13:53:19.872Z,14.50
2018-09-25T13:55:52.965Z,14.50
2018-09-25T13:58:26.260Z,14.50
2018-09-25T14:00:59.373Z,14.60
2018-09-25T14:03:32.565Z,14.90
2018-09-25T14:06:05.890Z,15.00
2018-09-25T14:08:39.012Z,15.10
2018-09-25T14:11:12.105Z,15.20
2018-09-25T14:13:45.292Z,15.30
2018-09-25T14:16:18.592Z,15.10
2018-09-25T14:18:51.952Z,14.90
2018-09-25T14:21:25.183Z,14.90
2018-09-25T14:23:58.466Z,14.90
2018-09-25T14:26:31.898Z,15.00
2018-09-25T14:29:05.148Z,15.10
2018-09-25T14:31:38.255Z,15.10
2018-09-25T14:34:11.460Z,15.20
2018-09-25T14:36:44.719Z,15.20
2018-09-25T14:39:18.130Z,15.20
2018-09-25T14:41:51.247Z,15.10
2018-09-25T14:44:24.434Z,14.90
2018-09-25T14:46:57.782Z,14.70
2018-09-25T14:49:31.144Z,14.60
2018-09-25T14:52:04.485Z,14.50
2018-09-25T14:54:38.149Z,14.40
2018-09-25T14:57:11.328Z,14.20
2018-09-25T14:59:44.557Z,14.20
2018-09-25T15:02:18.046Z,14.00
2018-09-25T15:04:51.318Z,13.90
2018-09-25T15:07:24.731Z,13.90
2018-09-25T15:09:58.161Z,13.80
2018-09-25T15:12:31.548Z,13.90
2018-09-25T15:15:04.821Z,13.90
2018-09-25T15:17:37.960Z,14.00
2018-09-25T15:20:11.445Z,14.00
2018-09-25T15:22:44.872Z,14.20
2018-09-25T15:25:18.077Z,14.20
2018-09-25T15:27:51.475Z,14.20
2018-09-25T15:30:24.658Z,14.10
2018-09-25T15:32:57.973Z,14.00
2018-09-25T15:35:31.250Z,14.00
2018-09-25T15:38:04.437Z,14.00
2018-09-25T15:40:37.599Z,13.80
2018-09-25T15:43:11.037Z,13.70
2018-09-25T15:45:44.248Z,13.60
2018-09-25T15:48:17.530Z,13.50
2018-09-25T15:50:50.698Z,13.40
2018-09-25T15:53:23.982Z,13.40
2018-09-25T15:55:57.200Z,13.40
2018-09-25T15:58:30.352Z,13.50
2018-09-25T16:01:03.553Z,13.50
2018-09-25T16:03:36.829Z,13.50
2018-09-25T16:06:10.249Z,13.50
2018-09-25T16:08:43.691Z,13.60
2018-09-25T16:11:17.039Z,13.40
2018-09-25T16:13:50.354Z,13.20
2018-09-25T16:16:23.599Z,13.10
2018-09-25T16:18:56.724Z,13.00
2018-09-25T16:21:29.951Z,12.90
2018-09-25T16:24:03.187Z,12.90
2018-09-25T16:26:36.502Z,12.90
2018-09-25T16:29:09.713Z,12.90
2018-09-25T16:31:42.897Z,12.80
2018-09-25T16:34:16.157Z,12.80
2018-09-25T16:36:49.322Z,12.80
2018-09-25T16:39:22.557Z,12.70
2018-09-25T16:41:55.815Z,12.70
2018-09-25T16:44:29.101Z,12.70
2018-09-25T16:47:02.448Z,12.70
2018-09-25T16:49:35.784Z,12.80
2018-09-25T16:52:09.100Z,12.70
2018-09-25T16:54:42.497Z,12.70
2018-09-25T16:57:15.874Z,12.70
2018-09-25T16:59:49.119Z,12.70
2018-09-25T17:02:22.382Z,12.60
2018-09-25T17:04:55.716Z,12.60
2018-09-25T17:07:28.968Z,12.60
2018-09-25T17:10:02.548Z,12.50
2018-09-25T17:12:35.877Z,12.40
2018-09-25T17:15:09.268Z,12.30
2018-09-25T17:17:42.862Z,12.10
2018-09-25T17:20:16.079Z,12.00
2018-09-25T17:22:49.348Z,12.00
2018-09-25T17:25:22.647Z,11.90
2018-09-25T17:27:56.093Z,11.80
2018-09-25T17:30:29.475Z,11.80
2018-09-25T17:33:02.910Z,11.60
2018-09-25T17:35:36.163Z,11.60
2018-09-25T17:38:09.310Z,11.40
2018-09-25T17:40:42.590Z,11.30
2018-09-25T17:43:15.811Z,11.20
2018-09-25T17:45:49.131Z,11.10
2018-09-25T17:48:22.235Z,11.10
2018-09-25T17:50:55.448Z,11.00
2018-09-25T17:53:28.658Z,10.90
2018-09-25T17:56:01.887Z,10.80
2018-09-25T17:58:35.225Z,10.70
2018-09-25T18:01:08.508Z,10.60
2018-09-25T18:03:41.866Z,10.40
2018-09-25T18:06:15.003Z,10.30
2018-09-25T18:08:48.429Z,10.20
2018-09-25T18:11:21.921Z,10.20
2018-09-25T18:13:55.353Z,10.20
2018-09-25T18:16:28.665Z,10.10
2018-09-25T18:19:02.043Z,10.00
2018-09-25T18:24:08.552Z,9.90
2018-09-25T18:26:41.649Z,9.80
2018-09-25T18:29:15.371Z,9.70
2018-09-25T18:31:48.951Z,9.60
2018-09-25T18:34:22.310Z,9.50
2018-09-25T18:36:55.483Z,9.40
2018-09-25T18:39:28.970Z,9.40
2018-09-25T18:42:02.208Z,9.30
2018-09-25T18:44:35.490Z,9.20
2018-09-25T18:47:08.731Z,9.10
2018-09-25T18:49:42.079Z,9.00
2018-09-25T18:52:15.520Z,9.00
2018-09-25T18:54:48.935Z,8.90
2018-09-25T18:57:22.624Z,8.80
2018-09-25T18:59:55.864Z,8.80
2018-09-25T19:02:29.262Z,8.70
2018-09-25T19:05:02.701Z,8.60
2018-09-25T19:07:36.116Z,8.60
2018-09-25T19:10:09.328Z,8.60
2018-09-25T19:12:42.503Z,8.50
2018-09-25T19:15:15.917Z,8.40
2018-09-25T19:17:49.006Z,8.30
2018-09-25T19:20:22.461Z,8.30
2018-09-25T19:22:55.575Z,8.30
2018-09-25T19:25:28.901Z,8.30
2018-09-25T19:28:02.088Z,8.30
2018-09-25T19:30:35.462Z,8.20
2018-09-25T19:33:08.633Z,8.10
2018-09-25T19:38:15.054Z,7.90
2018-09-25T19:40:48.398Z,7.90
2018-09-25T19:43:21.639Z,7.80
2018-09-25T19:45:54.901Z,7.70
2018-09-25T19:48:28.066Z,7.60
2018-09-25T19:51:01.486Z,7.60
2018-09-25T19:53:34.590Z,7.60
2018-09-25T19:56:07.775Z,7.60
2018-09-25T19:58:41.072Z,7.60
2018-09-25T20:01:14.358Z,7.50
2018-09-25T20:03:47.944Z,7.40
2018-09-25T20:06:21.180Z,7.40
2018-09-25T20:08:54.830Z,7.50
2018-09-25T20:11:28.190Z,7.50
2018-09-25T20:14:01.699Z,7.50
2018-09-25T20:16:34.838Z,7.50
2018-09-25T20:19:08.210Z,7.60
2018-09-25T20:21:41.349Z,7.50
2018-09-25T20:24:14.599Z,7.30
2018-09-25T20:26:48.059Z,7.20
2018-09-25T20:29:21.435Z,7.20
2018-09-25T20:31:54.571Z,7.20
2018-09-25T20:34:28.060Z,7.10
2018-09-25T20:37:01.417Z,7.00
2018-09-25T20:39:34.671Z,7.00
2018-09-25T20:42:07.911Z,6.90
2018-09-25T20:44:41.040Z,6.80
2018-09-25T20:47:15.567Z,6.80
2018-09-25T20:49:48.857Z,6.80
2018-09-25T20:52:22.418Z,6.70
2018-09-25T20:54:55.741Z,6.70
2018-09-25T20:57:29.022Z,6.70
2018-09-25T21:00:02.625Z,6.70
2018-09-25T21:02:35.888Z,6.70
2018-09-25T21:05:09.333Z,6.60
2018-09-25T21:07:42.579Z,6.70
2018-09-25T21:10:15.799Z,6.70
2018-09-25T21:12:49.221Z,6.60
2018-09-25T21:15:22.438Z,6.60
2018-09-25T21:17:55.585Z,6.50
2018-09-25T21:20:28.884Z,6.50
2018-09-25T21:23:02.141Z,6.40
2018-09-25T21:25:35.261Z,6.30
2018-09-25T21:28:08.649Z,6.30
2018-09-25T21:30:41.934Z,6.30
2018-09-25T21:33:15.033Z,6.30
2018-09-25T21:35:48.122Z,6.30
2018-09-25T21:38:21.240Z,6.30
2018-09-25T21:40:54.434Z,6.30
2018-09-25T21:43:27.718Z,6.30
2018-09-25T21:46:01.106Z,6.20
2018-09-25T21:48:34.636Z,6.10
2018-09-25T21:51:08.008Z,6.10
2018-09-25T21:53:41.083Z,6.10
2018-09-25T21:56:14.267Z,6.20
2018-09-25T21:58:47.572Z,6.10
2018-09-25T22:01:20.769Z,6.10
2018-09-25T22:03:54.081Z,6.10
2018-09-25T22:06:27.342Z,6.00
2018-09-25T22:09:00.441Z,6.10
2018-09-25T22:11:33.698Z,6.00
2018-09-25T22:14:06.816Z,6.00
2018-09-25T22:16:39.973Z,6.00
2018-09-25T22:19:13.190Z,6.00
2018-09-25T22:21:46.224Z,5.90
2018-09-25T22:24:19.299Z,5.80
2018-09-25T22:26:52.531Z,5.80
2018-09-25T22:29:25.892Z,5.70
2018-09-25T22:31:59.413Z,5.70
2018-09-25T22:34:32.460Z,5.70
2018-09-25T22:37:05.736Z,5.70
2018-09-25T22:39:38.895Z,5.60
2018-09-25T22:42:11.955Z,5.60
2018-09-25T22:44:45.277Z,5.60
2018-09-25T22:47:18.471Z,5.60
2018-09-25T22:49:51.663Z,5.60
2018-09-25T22:52:24.762Z,5.70
2018-09-25T22:55:04.896Z,5.70
2018-09-25T23:05:31.778Z,5.70
2018-09-25T23:08:05.606Z,5.50
2018-09-25T23:52:40.847Z,5.30
2018-09-25T23:55:18.886Z,5.30
2018-09-25T23:57:54.244Z,5.30
